sensor_id;sensor_type;location;lat;lon;timestamp;temperature;humidity
16128;DHT22;8168;49.036;7.690;2022-07-25T00:00:49;19.50;93.30
16128;DHT22;8168;49.036;7.690;2022-07-25T00:03:19;19.40;93.40
16128;DHT22;8168;49.036;7.690;2022-07-25T00:05:50;19.40;93.50
16128;DHT22;8168;49.036;7.690;2022-07-25T00:08:21;19.40;93.60
16128;DHT22;8168;49.036;7.690;2022-07-25T00:10:51;19.30;93.80
16128;DHT22;8168;49.036;7.690;2022-07-25T00:13:22;19.30;93.70
16128;DHT22;8168;49.036;7.690;2022-07-25T00:15:53;19.20;93.90
16128;DHT22;8168;49.036;7.690;2022-07-25T00:18:23;19.20;93.90
16128;DHT22;8168;49.036;7.690;2022-07-25T00:20:54;19.20;93.90
16128;DHT22;8168;49.036;7.690;2022-07-25T00:23:24;19.10;94.00
16128;DHT22;8168;49.036;7.690;2022-07-25T00:25:55;19.10;94.00
16128;DHT22;8168;49.036;7.690;2022-07-25T00:28:26;19.00;93.80
16128;DHT22;8168;49.036;7.690;2022-07-25T00:30:56;18.90;94.00
16128;DHT22;8168;49.036;7.690;2022-07-25T00:33:27;18.90;94.30
16128;DHT22;8168;49.036;7.690;2022-07-25T00:35:58;18.90;94.50
16128;DHT22;8168;49.036;7.690;2022-07-25T00:38:28;18.80;94.60
16128;DHT22;8168;49.036;7.690;2022-07-25T00:40:59;18.80;94.70
16128;DHT22;8168;49.036;7.690;2022-07-25T00:43:30;18.70;94.70
16128;DHT22;8168;49.036;7.690;2022-07-25T00:46:01;18.70;94.90
16128;DHT22;8168;49.036;7.690;2022-07-25T00:48:32;18.70;95.10
16128;DHT22;8168;49.036;7.690;2022-07-25T00:51:02;18.70;95.20
16128;DHT22;8168;49.036;7.690;2022-07-25T00:53:34;18.70;95.30
16128;DHT22;8168;49.036;7.690;2022-07-25T00:56:06;18.60;95.40
16128;DHT22;8168;49.036;7.690;2022-07-25T00:58:36;18.60;95.40
16128;DHT22;8168;49.036;7.690;2022-07-25T01:01:07;18.60;95.50
16128;DHT22;8168;49.036;7.690;2022-07-25T01:03:38;18.60;95.50
16128;DHT22;8168;49.036;7.690;2022-07-25T01:06:08;18.50;95.50
16128;DHT22;8168;49.036;7.690;2022-07-25T01:08:39;18.50;95.60
16128;DHT22;8168;49.036;7.690;2022-07-25T01:11:11;18.50;95.80
16128;DHT22;8168;49.036;7.690;2022-07-25T01:13:41;18.40;95.80
16128;DHT22;8168;49.036;7.690;2022-07-25T01:16:12;18.40;95.80
16128;DHT22;8168;49.036;7.690;2022-07-25T01:18:43;18.30;95.90
16128;DHT22;8168;49.036;7.690;2022-07-25T01:21:14;18.40;95.90
16128;DHT22;8168;49.036;7.690;2022-07-25T01:23:45;18.30;95.90
16128;DHT22;8168;49.036;7.690;2022-07-25T01:26:15;18.30;96.20
16128;DHT22;8168;49.036;7.690;2022-07-25T01:28:46;18.20;96.40
16128;DHT22;8168;49.036;7.690;2022-07-25T01:31:17;18.30;96.50
16128;DHT22;8168;49.036;7.690;2022-07-25T01:33:47;18.20;96.50
16128;DHT22;8168;49.036;7.690;2022-07-25T01:36:18;18.20;96.70
16128;DHT22;8168;49.036;7.690;2022-07-25T01:38:49;18.10;96.80
16128;DHT22;8168;49.036;7.690;2022-07-25T01:41:19;18.10;97.00
16128;DHT22;8168;49.036;7.690;2022-07-25T01:43:50;18.20;97.20
16128;DHT22;8168;49.036;7.690;2022-07-25T01:46:21;18.10;97.20
16128;DHT22;8168;49.036;7.690;2022-07-25T01:48:51;18.10;97.20
16128;DHT22;8168;49.036;7.690;2022-07-25T01:51:22;18.00;97.20
16128;DHT22;8168;49.036;7.690;2022-07-25T01:53:52;18.10;97.30
16128;DHT22;8168;49.036;7.690;2022-07-25T01:56:23;18.00;97.30
16128;DHT22;8168;49.036;7.690;2022-07-25T01:58:54;17.90;97.40
16128;DHT22;8168;49.036;7.690;2022-07-25T02:01:24;18.00;97.90
16128;DHT22;8168;49.036;7.690;2022-07-25T02:03:55;17.90;97.60
16128;DHT22;8168;49.036;7.690;2022-07-25T02:06:26;17.90;97.60
16128;DHT22;8168;49.036;7.690;2022-07-25T02:08:56;17.90;97.60
16128;DHT22;8168;49.036;7.690;2022-07-25T02:11:27;17.90;97.70
16128;DHT22;8168;49.036;7.690;2022-07-25T02:13:57;17.90;97.80
16128;DHT22;8168;49.036;7.690;2022-07-25T02:16:28;17.80;97.70
16128;DHT22;8168;49.036;7.690;2022-07-25T02:18:59;17.80;97.90
16128;DHT22;8168;49.036;7.690;2022-07-25T02:21:30;17.80;98.00
16128;DHT22;8168;49.036;7.690;2022-07-25T02:24:00;17.70;98.00
16128;DHT22;8168;49.036;7.690;2022-07-25T02:26:31;17.70;98.00
16128;DHT22;8168;49.036;7.690;2022-07-25T02:29:02;17.70;98.00
16128;DHT22;8168;49.036;7.690;2022-07-25T02:31:33;17.60;98.00
16128;DHT22;8168;49.036;7.690;2022-07-25T02:34:03;17.60;98.00
16128;DHT22;8168;49.036;7.690;2022-07-25T02:36:34;17.60;98.20
16128;DHT22;8168;49.036;7.690;2022-07-25T02:39:05;17.60;98.30
16128;DHT22;8168;49.036;7.690;2022-07-25T02:41:35;17.50;98.40
16128;DHT22;8168;49.036;7.690;2022-07-25T02:44:06;17.50;98.30
16128;DHT22;8168;49.036;7.690;2022-07-25T02:46:36;17.50;98.50
16128;DHT22;8168;49.036;7.690;2022-07-25T02:49:07;17.50;98.60
16128;DHT22;8168;49.036;7.690;2022-07-25T02:51:38;17.40;98.40
16128;DHT22;8168;49.036;7.690;2022-07-25T02:54:08;17.40;98.50
16128;DHT22;8168;49.036;7.690;2022-07-25T02:56:39;17.30;98.70
16128;DHT22;8168;49.036;7.690;2022-07-25T02:59:09;17.30;98.80
16128;DHT22;8168;49.036;7.690;2022-07-25T03:01:40;17.30;99.00
16128;DHT22;8168;49.036;7.690;2022-07-25T03:04:11;17.30;99.20
16128;DHT22;8168;49.036;7.690;2022-07-25T03:06:41;17.30;99.40
16128;DHT22;8168;49.036;7.690;2022-07-25T03:09:12;17.30;99.30
16128;DHT22;8168;49.036;7.690;2022-07-25T03:11:43;17.30;99.40
16128;DHT22;8168;49.036;7.690;2022-07-25T03:14:13;17.30;99.40
16128;DHT22;8168;49.036;7.690;2022-07-25T03:16:44;17.20;99.40
16128;DHT22;8168;49.036;7.690;2022-07-25T03:19:15;17.20;99.40
16128;DHT22;8168;49.036;7.690;2022-07-25T03:21:45;17.20;99.50
16128;DHT22;8168;49.036;7.690;2022-07-25T03:24:16;17.10;99.70
16128;DHT22;8168;49.036;7.690;2022-07-25T03:26:48;17.10;99.70
16128;DHT22;8168;49.036;7.690;2022-07-25T03:29:19;17.10;99.70
16128;DHT22;8168;49.036;7.690;2022-07-25T03:31:50;17.00;99.70
16128;DHT22;8168;49.036;7.690;2022-07-25T03:34:20;17.00;99.90
16128;DHT22;8168;49.036;7.690;2022-07-25T03:36:51;19.40;99.90
16128;DHT22;8168;49.036;7.690;2022-07-25T03:39:22;17.00;99.90
16128;DHT22;8168;49.036;7.690;2022-07-25T03:41:54;17.00;99.90
16128;DHT22;8168;49.036;7.690;2022-07-25T03:44:25;17.00;99.90
16128;DHT22;8168;49.036;7.690;2022-07-25T03:46:56;17.00;99.90
16128;DHT22;8168;49.036;7.690;2022-07-25T03:49:26;16.90;99.90
16128;DHT22;8168;49.036;7.690;2022-07-25T03:51:57;16.90;99.90
16128;DHT22;8168;49.036;7.690;2022-07-25T03:54:28;16.80;99.90
16128;DHT22;8168;49.036;7.690;2022-07-25T03:56:59;16.90;99.90
16128;DHT22;8168;49.036;7.690;2022-07-25T03:59:29;16.90;99.90
16128;DHT22;8168;49.036;7.690;2022-07-25T04:02:00;16.90;99.90
16128;DHT22;8168;49.036;7.690;2022-07-25T04:04:30;16.90;99.90
16128;DHT22;8168;49.036;7.690;2022-07-25T04:07:01;16.80;99.90
16128;DHT22;8168;49.036;7.690;2022-07-25T04:09:32;16.80;99.90
16128;DHT22;8168;49.036;7.690;2022-07-25T04:12:03;16.80;99.90
16128;DHT22;8168;49.036;7.690;2022-07-25T04:14:33;18.00;99.90
16128;DHT22;8168;49.036;7.690;2022-07-25T04:17:04;16.80;99.90
16128;DHT22;8168;49.036;7.690;2022-07-25T04:19:35;16.70;99.90
16128;DHT22;8168;49.036;7.690;2022-07-25T04:22:06;16.70;99.90
16128;DHT22;8168;49.036;7.690;2022-07-25T04:24:37;16.70;99.90
16128;DHT22;8168;49.036;7.690;2022-07-25T04:27:07;16.70;99.90
16128;DHT22;8168;49.036;7.690;2022-07-25T04:29:38;16.70;99.90
16128;DHT22;8168;49.036;7.690;2022-07-25T04:32:08;16.60;99.90
16128;DHT22;8168;49.036;7.690;2022-07-25T04:34:39;16.60;99.90
16128;DHT22;8168;49.036;7.690;2022-07-25T04:37:10;16.60;99.90
16128;DHT22;8168;49.036;7.690;2022-07-25T04:39:41;16.60;99.90
16128;DHT22;8168;49.036;7.690;2022-07-25T04:42:12;16.60;99.90
16128;DHT22;8168;49.036;7.690;2022-07-25T04:44:42;16.60;99.90
16128;DHT22;8168;49.036;7.690;2022-07-25T04:47:13;16.60;99.90
16128;DHT22;8168;49.036;7.690;2022-07-25T04:49:44;16.60;99.90
16128;DHT22;8168;49.036;7.690;2022-07-25T04:52:14;16.70;99.90
16128;DHT22;8168;49.036;7.690;2022-07-25T04:54:45;16.70;99.90
16128;DHT22;8168;49.036;7.690;2022-07-25T04:57:15;16.70;99.90
16128;DHT22;8168;49.036;7.690;2022-07-25T04:59:46;16.70;99.90
16128;DHT22;8168;49.036;7.690;2022-07-25T05:02:17;16.80;99.90
16128;DHT22;8168;49.036;7.690;2022-07-25T05:04:47;16.80;99.90
16128;DHT22;8168;49.036;7.690;2022-07-25T05:07:18;16.80;99.90
16128;DHT22;8168;49.036;7.690;2022-07-25T05:09:48;16.90;99.90
16128;DHT22;8168;49.036;7.690;2022-07-25T05:12:19;16.90;99.90
16128;DHT22;8168;49.036;7.690;2022-07-25T05:14:50;16.90;99.90
16128;DHT22;8168;49.036;7.690;2022-07-25T05:17:20;17.00;99.90
16128;DHT22;8168;49.036;7.690;2022-07-25T05:19:51;17.00;99.90
16128;DHT22;8168;49.036;7.690;2022-07-25T05:22:21;17.10;99.90
16128;DHT22;8168;49.036;7.690;2022-07-25T05:24:52;17.10;99.90
16128;DHT22;8168;49.036;7.690;2022-07-25T05:27:23;17.20;99.90
16128;DHT22;8168;49.036;7.690;2022-07-25T05:29:53;17.20;99.90
16128;DHT22;8168;49.036;7.690;2022-07-25T05:32:24;17.30;99.90
16128;DHT22;8168;49.036;7.690;2022-07-25T05:34:55;17.40;99.90
16128;DHT22;8168;49.036;7.690;2022-07-25T05:37:25;17.50;99.90
16128;DHT22;8168;49.036;7.690;2022-07-25T05:39:56;17.60;99.90
16128;DHT22;8168;49.036;7.690;2022-07-25T05:42:26;17.70;99.90
16128;DHT22;8168;49.036;7.690;2022-07-25T05:44:57;17.80;99.90
16128;DHT22;8168;49.036;7.690;2022-07-25T05:47:28;17.90;99.90
16128;DHT22;8168;49.036;7.690;2022-07-25T05:49:58;18.00;99.90
16128;DHT22;8168;49.036;7.690;2022-07-25T05:52:29;18.10;99.90
16128;DHT22;8168;49.036;7.690;2022-07-25T05:55:00;18.20;99.90
16128;DHT22;8168;49.036;7.690;2022-07-25T05:57:30;18.30;99.90
16128;DHT22;8168;49.036;7.690;2022-07-25T06:00:04;18.40;99.90
16128;DHT22;8168;49.036;7.690;2022-07-25T06:02:35;18.40;99.90
16128;DHT22;8168;49.036;7.690;2022-07-25T06:05:05;18.60;99.90
16128;DHT22;8168;49.036;7.690;2022-07-25T06:07:36;18.60;99.90
16128;DHT22;8168;49.036;7.690;2022-07-25T06:10:07;18.70;99.90
16128;DHT22;8168;49.036;7.690;2022-07-25T06:12:38;18.90;99.90
16128;DHT22;8168;49.036;7.690;2022-07-25T06:15:09;19.00;99.90
16128;DHT22;8168;49.036;7.690;2022-07-25T06:17:40;19.10;99.90
16128;DHT22;8168;49.036;7.690;2022-07-25T06:20:11;19.20;99.90
16128;DHT22;8168;49.036;7.690;2022-07-25T06:22:42;19.30;99.90
16128;DHT22;8168;49.036;7.690;2022-07-25T06:25:12;19.40;99.90
16128;DHT22;8168;49.036;7.690;2022-07-25T06:27:44;19.50;99.90
16128;DHT22;8168;49.036;7.690;2022-07-25T06:30:15;19.60;99.90
16128;DHT22;8168;49.036;7.690;2022-07-25T06:32:46;19.80;99.90
16128;DHT22;8168;49.036;7.690;2022-07-25T06:35:17;19.90;99.90
16128;DHT22;8168;49.036;7.690;2022-07-25T06:37:48;20.00;99.90
16128;DHT22;8168;49.036;7.690;2022-07-25T06:40:19;20.20;99.90
16128;DHT22;8168;49.036;7.690;2022-07-25T06:42:49;20.30;99.90
16128;DHT22;8168;49.036;7.690;2022-07-25T06:45:20;20.50;99.90
16128;DHT22;8168;49.036;7.690;2022-07-25T06:47:51;20.50;99.90
16128;DHT22;8168;49.036;7.690;2022-07-25T06:50:22;20.60;99.90
16128;DHT22;8168;49.036;7.690;2022-07-25T06:52:52;20.80;99.90
16128;DHT22;8168;49.036;7.690;2022-07-25T06:55:24;20.90;99.90
16128;DHT22;8168;49.036;7.690;2022-07-25T06:57:55;21.00;99.90
16128;DHT22;8168;49.036;7.690;2022-07-25T07:00:26;21.10;99.90
16128;DHT22;8168;49.036;7.690;2022-07-25T07:03:00;21.20;99.90
16128;DHT22;8168;49.036;7.690;2022-07-25T07:05:33;21.30;99.90
16128;DHT22;8168;49.036;7.690;2022-07-25T07:08:05;21.50;99.90
16128;DHT22;8168;49.036;7.690;2022-07-25T07:10:36;21.60;99.90
16128;DHT22;8168;49.036;7.690;2022-07-25T07:13:10;21.80;99.90
16128;DHT22;8168;49.036;7.690;2022-07-25T07:15:46;21.90;99.90
16128;DHT22;8168;49.036;7.690;2022-07-25T07:18:19;22.10;99.90
16128;DHT22;8168;49.036;7.690;2022-07-25T07:20:50;22.20;99.90
16128;DHT22;8168;49.036;7.690;2022-07-25T07:23:21;22.40;99.90
16128;DHT22;8168;49.036;7.690;2022-07-25T07:25:52;22.50;99.90
16128;DHT22;8168;49.036;7.690;2022-07-25T07:28:23;22.60;99.90
16128;DHT22;8168;49.036;7.690;2022-07-25T07:30:53;22.80;99.90
16128;DHT22;8168;49.036;7.690;2022-07-25T07:33:24;22.90;99.90
16128;DHT22;8168;49.036;7.690;2022-07-25T07:35:55;23.10;99.90
16128;DHT22;8168;49.036;7.690;2022-07-25T07:38:26;23.30;99.90
16128;DHT22;8168;49.036;7.690;2022-07-25T07:40:57;23.30;99.90
16128;DHT22;8168;49.036;7.690;2022-07-25T07:43:28;23.50;99.90
16128;DHT22;8168;49.036;7.690;2022-07-25T07:46:01;23.60;99.90
16128;DHT22;8168;49.036;7.690;2022-07-25T07:48:34;23.70;99.90
16128;DHT22;8168;49.036;7.690;2022-07-25T07:51:05;21.90;99.90
16128;DHT22;8168;49.036;7.690;2022-07-25T07:53:36;24.20;99.90
16128;DHT22;8168;49.036;7.690;2022-07-25T07:56:25;24.40;99.70
16128;DHT22;8168;49.036;7.690;2022-07-25T07:58:56;24.60;98.90
16128;DHT22;8168;49.036;7.690;2022-07-25T08:01:26;24.90;98.00
16128;DHT22;8168;49.036;7.690;2022-07-25T08:03:57;25.20;97.70
16128;DHT22;8168;49.036;7.690;2022-07-25T08:06:28;25.50;96.60
16128;DHT22;8168;49.036;7.690;2022-07-25T08:08:59;25.80;95.50
16128;DHT22;8168;49.036;7.690;2022-07-25T08:11:29;26.00;95.70
16128;DHT22;8168;49.036;7.690;2022-07-25T08:14:00;26.20;94.90
16128;DHT22;8168;49.036;7.690;2022-07-25T08:16:31;26.50;94.40
16128;DHT22;8168;49.036;7.690;2022-07-25T08:19:02;26.70;94.00
16128;DHT22;8168;49.036;7.690;2022-07-25T08:21:33;26.80;93.60
16128;DHT22;8168;49.036;7.690;2022-07-25T08:24:04;27.00;93.40
16128;DHT22;8168;49.036;7.690;2022-07-25T08:26:34;27.10;92.50
16128;DHT22;8168;49.036;7.690;2022-07-25T08:29:06;27.20;92.90
16128;DHT22;8168;49.036;7.690;2022-07-25T08:31:37;27.30;92.60
16128;DHT22;8168;49.036;7.690;2022-07-25T08:34:07;27.60;92.10
16128;DHT22;8168;49.036;7.690;2022-07-25T08:36:38;27.80;91.90
16128;DHT22;8168;49.036;7.690;2022-07-25T08:39:08;27.90;91.00
16128;DHT22;8168;49.036;7.690;2022-07-25T08:41:42;27.90;91.10
16128;DHT22;8168;49.036;7.690;2022-07-25T08:44:15;28.00;90.30
16128;DHT22;8168;49.036;7.690;2022-07-25T08:46:47;28.10;90.20
16128;DHT22;8168;49.036;7.690;2022-07-25T08:49:18;28.20;90.40
16128;DHT22;8168;49.036;7.690;2022-07-25T08:51:49;28.20;90.10
16128;DHT22;8168;49.036;7.690;2022-07-25T08:54:21;28.30;88.90
16128;DHT22;8168;49.036;7.690;2022-07-25T08:56:52;28.40;87.80
16128;DHT22;8168;49.036;7.690;2022-07-25T08:59:23;28.50;86.40
16128;DHT22;8168;49.036;7.690;2022-07-25T09:01:53;28.50;86.30
16128;DHT22;8168;49.036;7.690;2022-07-25T09:04:24;28.60;87.30
16128;DHT22;8168;49.036;7.690;2022-07-25T09:06:55;28.70;85.40
16128;DHT22;8168;49.036;7.690;2022-07-25T09:09:37;28.80;83.00
16128;DHT22;8168;49.036;7.690;2022-07-25T09:12:08;28.90;83.40
16128;DHT22;8168;49.036;7.690;2022-07-25T09:14:42;29.00;84.40
16128;DHT22;8168;49.036;7.690;2022-07-25T09:17:13;29.20;82.90
16128;DHT22;8168;49.036;7.690;2022-07-25T09:19:51;29.20;82.70
16128;DHT22;8168;49.036;7.690;2022-07-25T09:22:22;29.40;80.80
16128;DHT22;8168;49.036;7.690;2022-07-25T09:24:53;29.60;80.40
16128;DHT22;8168;49.036;7.690;2022-07-25T09:27:24;29.70;80.00
16128;DHT22;8168;49.036;7.690;2022-07-25T09:29:54;29.80;79.80
16128;DHT22;8168;49.036;7.690;2022-07-25T09:32:25;29.80;78.60
16128;DHT22;8168;49.036;7.690;2022-07-25T09:34:56;29.90;79.30
16128;DHT22;8168;49.036;7.690;2022-07-25T09:37:26;30.00;78.60
16128;DHT22;8168;49.036;7.690;2022-07-25T09:39:57;29.90;78.00
16128;DHT22;8168;49.036;7.690;2022-07-25T09:42:30;29.80;78.90
16128;DHT22;8168;49.036;7.690;2022-07-25T09:45:09;29.80;78.70
16128;DHT22;8168;49.036;7.690;2022-07-25T09:47:55;29.90;78.90
16128;DHT22;8168;49.036;7.690;2022-07-25T09:50:29;29.80;78.00
16128;DHT22;8168;49.036;7.690;2022-07-25T09:53:01;29.90;79.30
16128;DHT22;8168;49.036;7.690;2022-07-25T09:55:32;30.00;80.40
16128;DHT22;8168;49.036;7.690;2022-07-25T09:58:03;30.10;81.10
16128;DHT22;8168;49.036;7.690;2022-07-25T10:00:33;30.10;80.20
16128;DHT22;8168;49.036;7.690;2022-07-25T10:06:14;30.20;77.50
16128;DHT22;8168;49.036;7.690;2022-07-25T10:08:47;30.30;80.90
16128;DHT22;8168;49.036;7.690;2022-07-25T10:11:25;30.40;79.00
16128;DHT22;8168;49.036;7.690;2022-07-25T10:13:56;30.40;78.20
16128;DHT22;8168;49.036;7.690;2022-07-25T10:16:27;30.40;78.00
16128;DHT22;8168;49.036;7.690;2022-07-25T10:18:58;30.60;74.60
16128;DHT22;8168;49.036;7.690;2022-07-25T10:21:28;30.70;72.70
16128;DHT22;8168;49.036;7.690;2022-07-25T10:24:08;30.80;70.50
16128;DHT22;8168;49.036;7.690;2022-07-25T10:26:50;30.90;70.50
16128;DHT22;8168;49.036;7.690;2022-07-25T10:29:21;31.10;69.80
16128;DHT22;8168;49.036;7.690;2022-07-25T10:32:10;31.10;68.60
16128;DHT22;8168;49.036;7.690;2022-07-25T10:34:51;31.10;65.10
16128;DHT22;8168;49.036;7.690;2022-07-25T10:37:26;31.00;67.00
16128;DHT22;8168;49.036;7.690;2022-07-25T10:39:57;31.00;69.40
16128;DHT22;8168;49.036;7.690;2022-07-25T10:42:32;31.10;69.50
16128;DHT22;8168;49.036;7.690;2022-07-25T10:45:06;31.20;69.40
16128;DHT22;8168;49.036;7.690;2022-07-25T10:47:38;31.40;67.70
16128;DHT22;8168;49.036;7.690;2022-07-25T10:50:12;31.50;66.10
16128;DHT22;8168;49.036;7.690;2022-07-25T10:52:42;31.60;65.00
16128;DHT22;8168;49.036;7.690;2022-07-25T10:55:21;31.60;64.80
16128;DHT22;8168;49.036;7.690;2022-07-25T10:58:03;31.70;64.00
16128;DHT22;8168;49.036;7.690;2022-07-25T11:00:42;31.60;62.50
16128;DHT22;8168;49.036;7.690;2022-07-25T11:03:14;31.60;62.30
16128;DHT22;8168;49.036;7.690;2022-07-25T11:05:45;31.70;63.60
16128;DHT22;8168;49.036;7.690;2022-07-25T11:08:16;31.70;61.30
16128;DHT22;8168;49.036;7.690;2022-07-25T11:10:50;31.60;60.60
16128;DHT22;8168;49.036;7.690;2022-07-25T11:13:24;31.70;60.60
16128;DHT22;8168;49.036;7.690;2022-07-25T11:15:58;31.80;60.90
16128;DHT22;8168;49.036;7.690;2022-07-25T11:18:39;31.80;61.40
16128;DHT22;8168;49.036;7.690;2022-07-25T11:21:13;31.90;60.90
16128;DHT22;8168;49.036;7.690;2022-07-25T11:23:52;32.00;61.30
16128;DHT22;8168;49.036;7.690;2022-07-25T11:26:22;32.20;60.00
16128;DHT22;8168;49.036;7.690;2022-07-25T11:28:53;32.30;58.50
16128;DHT22;8168;49.036;7.690;2022-07-25T11:31:24;32.40;60.20
16128;DHT22;8168;49.036;7.690;2022-07-25T11:33:55;32.40;59.60
16128;DHT22;8168;49.036;7.690;2022-07-25T11:36:26;32.60;59.00
16128;DHT22;8168;49.036;7.690;2022-07-25T11:38:56;32.70;58.40
16128;DHT22;8168;49.036;7.690;2022-07-25T11:41:28;32.70;57.20
16128;DHT22;8168;49.036;7.690;2022-07-25T11:43:59;32.80;57.80
16128;DHT22;8168;49.036;7.690;2022-07-25T11:46:43;32.90;59.20
16128;DHT22;8168;49.036;7.690;2022-07-25T11:49:14;33.10;58.40
16128;DHT22;8168;49.036;7.690;2022-07-25T11:51:44;33.20;58.50
16128;DHT22;8168;49.036;7.690;2022-07-25T11:54:16;33.20;59.10
16128;DHT22;8168;49.036;7.690;2022-07-25T11:56:46;33.30;58.60
16128;DHT22;8168;49.036;7.690;2022-07-25T11:59:17;33.40;57.50
16128;DHT22;8168;49.036;7.690;2022-07-25T12:01:48;33.50;57.80
16128;DHT22;8168;49.036;7.690;2022-07-25T12:04:19;33.40;56.70
16128;DHT22;8168;49.036;7.690;2022-07-25T12:06:49;33.30;56.90
16128;DHT22;8168;49.036;7.690;2022-07-25T12:09:21;33.10;57.30
16128;DHT22;8168;49.036;7.690;2022-07-25T12:12:01;33.10;57.70
16128;DHT22;8168;49.036;7.690;2022-07-25T12:14:41;32.90;57.70
16128;DHT22;8168;49.036;7.690;2022-07-25T12:17:12;32.90;57.00
16128;DHT22;8168;49.036;7.690;2022-07-25T12:19:45;33.00;57.70
16128;DHT22;8168;49.036;7.690;2022-07-25T12:22:18;33.10;57.50
16128;DHT22;8168;49.036;7.690;2022-07-25T12:24:49;33.30;58.90
16128;DHT22;8168;49.036;7.690;2022-07-25T12:27:20;33.40;56.30
16128;DHT22;8168;49.036;7.690;2022-07-25T12:29:50;33.50;55.20
16128;DHT22;8168;49.036;7.690;2022-07-25T12:32:21;33.70;55.10
16128;DHT22;8168;49.036;7.690;2022-07-25T12:34:51;33.70;55.40
16128;DHT22;8168;49.036;7.690;2022-07-25T12:37:22;33.60;55.40
16128;DHT22;8168;49.036;7.690;2022-07-25T12:39:53;33.50;54.90
16128;DHT22;8168;49.036;7.690;2022-07-25T12:42:25;33.20;55.60
16128;DHT22;8168;49.036;7.690;2022-07-25T12:44:56;33.00;56.00
16128;DHT22;8168;49.036;7.690;2022-07-25T12:47:27;32.80;56.10
16128;DHT22;8168;49.036;7.690;2022-07-25T12:49:58;32.70;55.90
16128;DHT22;8168;49.036;7.690;2022-07-25T12:52:28;32.60;56.20
16128;DHT22;8168;49.036;7.690;2022-07-25T12:54:59;32.50;56.70
16128;DHT22;8168;49.036;7.690;2022-07-25T12:57:30;32.40;57.00
16128;DHT22;8168;49.036;7.690;2022-07-25T13:00:02;32.20;57.30
16128;DHT22;8168;49.036;7.690;2022-07-25T13:02:33;32.00;57.90
16128;DHT22;8168;49.036;7.690;2022-07-25T13:05:04;31.90;57.80
16128;DHT22;8168;49.036;7.690;2022-07-25T13:07:35;31.80;57.90
16128;DHT22;8168;49.036;7.690;2022-07-25T13:10:06;31.70;58.40
16128;DHT22;8168;49.036;7.690;2022-07-25T13:12:37;31.70;59.00
16128;DHT22;8168;49.036;7.690;2022-07-25T13:15:08;31.60;61.20
16128;DHT22;8168;49.036;7.690;2022-07-25T13:17:39;31.50;64.40
16128;DHT22;8168;49.036;7.690;2022-07-25T13:20:10;31.00;68.00
16128;DHT22;8168;49.036;7.690;2022-07-25T13:22:41;30.60;72.70
16128;DHT22;8168;49.036;7.690;2022-07-25T13:25:12;30.30;74.90
16128;DHT22;8168;49.036;7.690;2022-07-25T13:27:42;30.00;76.90
16128;DHT22;8168;49.036;7.690;2022-07-25T13:30:13;29.90;76.80
16128;DHT22;8168;49.036;7.690;2022-07-25T13:32:44;29.90;78.50
16128;DHT22;8168;49.036;7.690;2022-07-25T13:35:14;30.00;78.40
16128;DHT22;8168;49.036;7.690;2022-07-25T13:37:45;30.00;77.50
16128;DHT22;8168;49.036;7.690;2022-07-25T13:40:16;30.10;76.80
16128;DHT22;8168;49.036;7.690;2022-07-25T13:42:47;30.20;76.30
16128;DHT22;8168;49.036;7.690;2022-07-25T13:45:18;30.30;76.10
16128;DHT22;8168;49.036;7.690;2022-07-25T13:47:48;30.40;75.90
16128;DHT22;8168;49.036;7.690;2022-07-25T13:50:19;30.60;75.30
16128;DHT22;8168;49.036;7.690;2022-07-25T13:52:50;30.70;75.10
16128;DHT22;8168;49.036;7.690;2022-07-25T13:55:20;30.80;74.10
16128;DHT22;8168;49.036;7.690;2022-07-25T13:57:51;31.00;76.20
16128;DHT22;8168;49.036;7.690;2022-07-25T14:00:22;31.10;74.30
16128;DHT22;8168;49.036;7.690;2022-07-25T14:02:52;31.20;73.10
16128;DHT22;8168;49.036;7.690;2022-07-25T14:05:23;31.10;73.10
16128;DHT22;8168;49.036;7.690;2022-07-25T14:07:54;31.00;74.70
16128;DHT22;8168;49.036;7.690;2022-07-25T14:10:24;31.00;73.70
16128;DHT22;8168;49.036;7.690;2022-07-25T14:12:55;31.00;72.90
16128;DHT22;8168;49.036;7.690;2022-07-25T14:15:26;31.00;72.80
16128;DHT22;8168;49.036;7.690;2022-07-25T14:17:56;31.20;72.50
16128;DHT22;8168;49.036;7.690;2022-07-25T14:20:27;31.30;71.50
16128;DHT22;8168;49.036;7.690;2022-07-25T14:22:58;31.30;71.30
16128;DHT22;8168;49.036;7.690;2022-07-25T14:25:28;31.40;69.20
16128;DHT22;8168;49.036;7.690;2022-07-25T14:27:59;31.50;71.00
16128;DHT22;8168;49.036;7.690;2022-07-25T14:30:30;31.60;71.10
16128;DHT22;8168;49.036;7.690;2022-07-25T14:33:00;31.70;70.20
16128;DHT22;8168;49.036;7.690;2022-07-25T14:35:31;31.60;70.30
16128;DHT22;8168;49.036;7.690;2022-07-25T14:38:03;31.60;70.80
16128;DHT22;8168;49.036;7.690;2022-07-25T14:40:35;31.70;69.30
16128;DHT22;8168;49.036;7.690;2022-07-25T14:43:06;31.70;68.60
16128;DHT22;8168;49.036;7.690;2022-07-25T14:45:37;31.70;67.90
16128;DHT22;8168;49.036;7.690;2022-07-25T14:48:07;31.80;65.70
16128;DHT22;8168;49.036;7.690;2022-07-25T14:50:38;31.80;63.80
16128;DHT22;8168;49.036;7.690;2022-07-25T14:53:08;31.80;62.90
16128;DHT22;8168;49.036;7.690;2022-07-25T14:55:40;31.80;63.10
16128;DHT22;8168;49.036;7.690;2022-07-25T14:58:10;31.80;59.70
16128;DHT22;8168;49.036;7.690;2022-07-25T15:00:42;31.80;60.70
16128;DHT22;8168;49.036;7.690;2022-07-25T15:03:15;31.80;60.00
16128;DHT22;8168;49.036;7.690;2022-07-25T15:05:45;31.80;59.80
16128;DHT22;8168;49.036;7.690;2022-07-25T15:08:16;31.70;59.10
16128;DHT22;8168;49.036;7.690;2022-07-25T15:10:47;31.70;58.30
16128;DHT22;8168;49.036;7.690;2022-07-25T15:13:17;31.60;59.70
16128;DHT22;8168;49.036;7.690;2022-07-25T15:15:48;31.70;60.80
16128;DHT22;8168;49.036;7.690;2022-07-25T15:18:19;31.70;60.20
16128;DHT22;8168;49.036;7.690;2022-07-25T15:20:49;31.70;58.70
16128;DHT22;8168;49.036;7.690;2022-07-25T15:23:21;31.60;60.10
16128;DHT22;8168;49.036;7.690;2022-07-25T15:25:54;31.60;59.40
16128;DHT22;8168;49.036;7.690;2022-07-25T15:28:25;31.50;59.20
16128;DHT22;8168;49.036;7.690;2022-07-25T15:30:55;31.30;59.30
16128;DHT22;8168;49.036;7.690;2022-07-25T15:33:26;31.20;60.00
16128;DHT22;8168;49.036;7.690;2022-07-25T15:35:57;31.20;61.60
16128;DHT22;8168;49.036;7.690;2022-07-25T15:38:28;31.20;60.90
16128;DHT22;8168;49.036;7.690;2022-07-25T15:40:59;31.20;60.80
16128;DHT22;8168;49.036;7.690;2022-07-25T15:43:29;31.10;60.40
16128;DHT22;8168;49.036;7.690;2022-07-25T15:46:00;31.00;60.40
16128;DHT22;8168;49.036;7.690;2022-07-25T15:48:30;30.80;60.90
16128;DHT22;8168;49.036;7.690;2022-07-25T15:51:02;30.70;61.30
16128;DHT22;8168;49.036;7.690;2022-07-25T15:53:33;30.70;61.10
16128;DHT22;8168;49.036;7.690;2022-07-25T15:56:03;30.50;60.50
16128;DHT22;8168;49.036;7.690;2022-07-25T15:58:34;30.40;61.20
16128;DHT22;8168;49.036;7.690;2022-07-25T16:01:05;30.30;62.30
16128;DHT22;8168;49.036;7.690;2022-07-25T16:03:36;30.40;63.70
16128;DHT22;8168;49.036;7.690;2022-07-25T16:06:08;30.40;62.10
16128;DHT22;8168;49.036;7.690;2022-07-25T16:08:38;30.50;61.20
16128;DHT22;8168;49.036;7.690;2022-07-25T16:11:09;30.40;60.30
16128;DHT22;8168;49.036;7.690;2022-07-25T16:13:40;30.20;60.00